Time;durP1;ratioP1;P1;durP2;ratioP2;P2;SDS_P1;SDS_P2;PMS_P1;PMS_P2;Temp;Humidity;BMP_temperature;BMP_pressure;BME280_temperature;BME280_humidity;BME280_pressure;Samples;Min_cycle;Max_cycle;Signal;HPM_P1;HPM_P2
2021/12/01 00:02:16;;;;;;;11.67;6.53;;;128.00;2252.80;;;;;;4827012;29;20038;-64
2021/12/01 00:04:42;;;;;;;12.60;6.13;;;128.00;2252.80;;;;;;4826977;29;20045;-64
2021/12/01 00:07:09;;;;;;;11.50;6.47;;;128.00;2252.80;;;;;;4826876;29;20041;-64
2021/12/01 00:09:35;;;;;;;11.73;6.47;;;128.00;2252.80;;;;;;4826902;29;20083;-64
2021/12/01 00:12:01;;;;;;;12.87;6.70;;;128.00;2252.80;;;;;;4826879;29;20038;-63
2021/12/01 00:14:26;;;;;;;11.40;6.40;;;128.00;2252.80;;;;;;4827038;29;20065;-64
2021/12/01 00:16:53;;;;;;;11.47;5.90;;;128.00;2252.80;;;;;;4826840;29;20034;-64
2021/12/01 00:19:19;;;;;;;12.77;5.57;;;128.00;2252.80;;;;;;4826611;29;20047;-64
2021/12/01 00:21:45;;;;;;;11.30;5.80;;;128.00;2252.80;;;;;;4826774;29;20078;-64
2021/12/01 00:24:11;;;;;;;13.70;6.13;;;128.00;2252.80;;;;;;4826923;29;20071;-64
2021/12/01 00:26:37;;;;;;;8.80;4.87;;;128.00;2252.80;;;;;;4826655;29;20023;-64
2021/12/01 00:29:03;;;;;;;12.20;5.57;;;128.00;2252.80;;;;;;4826588;29;20477;-64
2021/12/01 00:31:29;;;;;;;9.30;4.90;;;128.00;2252.80;;;;;;4825637;29;20027;-64
2021/12/01 00:33:56;;;;;;;9.83;4.77;;;103.30;2227.20;;;;;;4826821;29;20022;-64
2021/12/01 00:36:22;;;;;;;9.07;4.67;;;103.30;2227.20;;;;;;4826457;29;20451;-65
2021/12/01 00:38:48;;;;;;;6.87;4.27;;;103.30;2227.20;;;;;;4826417;29;20050;-64
2021/12/01 00:41:15;;;;;;;6.47;3.93;;;128.00;2252.80;;;;;;4827290;29;20380;-64
2021/12/01 00:43:41;;;;;;;10.13;4.80;;;128.00;2252.80;;;;;;4826651;29;20037;-64
2021/12/01 00:46:22;;;;;;;10.27;4.50;;;103.30;2227.20;;;;;;4826591;29;20103;-64
2021/12/01 00:48:48;;;;;;;8.77;4.77;;;103.30;2227.20;;;;;;4826368;29;20026;-64
2021/12/01 00:51:16;;;;;;;7.40;4.43;;;103.30;2227.20;;;;;;4826491;29;20033;-64
2021/12/01 00:53:42;;;;;;;7.67;3.77;;;103.30;2227.20;;;;;;4826248;29;20389;-64
2021/12/01 00:56:09;;;;;;;6.60;3.67;;;103.30;2227.20;;;;;;4826104;29;20046;-64
2021/12/01 00:58:35;;;;;;;8.27;3.47;;;103.30;2227.20;;;;;;4826075;29;20039;-64
2021/12/01 01:01:02;;;;;;;8.17;4.07;;;103.30;2227.20;;;;;;4826065;29;20030;-64
2021/12/01 01:03:30;;;;;;;9.47;3.90;;;103.30;2227.20;;;;;;4826032;29;20038;-64
2021/12/01 01:05:57;;;;;;;7.90;3.97;;;103.30;2227.20;;;;;;4825980;29;20117;-64
2021/12/01 01:08:23;;;;;;;9.13;3.97;;;103.30;2227.20;;;;;;4826203;29;20434;-64
2021/12/01 01:16:25;;;;;;;5.60;3.47;;;128.00;2252.80;;;;;;4826327;29;20045;-63
2021/12/01 01:18:54;;;;;;;6.47;3.40;;;128.00;2252.80;;;;;;4825819;29;20081;-64
2021/12/01 01:21:21;;;;;;;7.07;4.20;;;128.00;2252.80;;;;;;4825981;29;20034;-64
2021/12/01 01:23:47;;;;;;;5.40;3.37;;;128.00;2252.80;;;;;;4826338;29;20541;-64
2021/12/01 01:26:15;;;;;;;6.63;3.63;;;128.00;2252.80;;;;;;4826031;29;20057;-65
2021/12/01 01:28:42;;;;;;;10.07;4.00;;;128.10;2252.80;;;;;;4825731;29;20035;-64
2021/12/01 01:31:09;;;;;;;6.37;3.57;;;128.00;2252.80;;;;;;4825637;29;20377;-64
2021/12/01 01:33:35;;;;;;;7.47;4.00;;;128.00;2252.80;;;;;;4825547;29;20030;-64
2021/12/01 01:36:01;;;;;;;8.00;4.27;;;128.10;2252.80;;;;;;4825894;29;20061;-65
2021/12/01 01:38:32;;;;;;;7.47;4.13;;;128.10;2252.80;;;;;;4825707;29;20081;-64
2021/12/01 01:41:03;;;;;;;4.53;3.10;;;128.10;2252.80;;;;;;4826127;29;20054;-64
2021/12/01 01:43:29;;;;;;;6.83;3.47;;;128.20;2252.80;;;;;;4825553;29;20037;-64
2021/12/01 01:45:57;;;;;;;4.73;3.17;;;128.20;2252.80;;;;;;4825474;29;20109;-64
2021/12/01 01:48:31;;;;;;;6.97;3.70;;;128.30;2252.80;;;;;;4825383;29;20042;-69
2021/12/01 01:51:03;;;;;;;6.53;3.50;;;128.40;2252.80;;;;;;4825962;29;20058;-68
2021/12/01 01:53:30;;;;;;;7.67;3.33;;;128.40;2252.80;;;;;;4825298;29;20043;-68
2021/12/01 01:56:01;;;;;;;5.13;3.23;;;128.40;2252.80;;;;;;4825163;29;20053;-65
2021/12/01 01:58:28;;;;;;;6.93;3.63;;;128.30;2252.80;;;;;;4825381;29;20134;-70
2021/12/01 02:01:06;;;;;;;6.17;4.13;;;128.30;2252.80;;;;;;4825104;29;20031;-64
2021/12/01 02:03:44;;;;;;;5.73;3.80;;;128.30;2252.80;;;;;;4825201;29;20481;-70
2021/12/01 02:06:11;;;;;;;6.33;4.07;;;128.30;2252.80;;;;;;4825582;29;20078;-69
2021/12/01 02:08:40;;;;;;;7.27;3.97;;;128.30;2252.80;;;;;;4825075;29;20042;-69
2021/12/01 02:11:10;;;;;;;6.37;3.53;;;128.30;2252.80;;;;;;4825127;29;20045;-69
2021/12/01 02:13:38;;;;;;;7.10;4.07;;;128.30;2252.80;;;;;;4825043;29;20034;-70
2021/12/01 02:16:04;;;;;;;9.20;4.30;;;128.30;2252.80;;;;;;4808490;29;20026;-69
2021/12/01 02:18:30;;;;;;;8.00;3.63;;;128.30;2252.80;;;;;;4824846;29;20038;-69
2021/12/01 02:21:15;;;;;;;6.87;3.77;;;128.30;2252.80;;;;;;4824970;29;20026;-64
2021/12/01 02:23:44;;;;;;;7.50;4.23;;;128.40;2252.80;;;;;;4824834;29;20043;-64
2021/12/01 02:26:11;;;;;;;9.07;3.93;;;128.40;2252.80;;;;;;4825200;29;20049;-64
2021/12/01 02:28:37;;;;;;;6.37;3.50;;;128.40;2252.80;;;;;;4824829;29;20523;-64
2021/12/01 02:31:04;;;;;;;6.60;3.37;;;128.40;2252.80;;;;;;4825151;29;20030;-69
2021/12/01 02:33:30;;;;;;;6.70;3.23;;;128.40;2252.80;;;;;;4824844;29;20567;-64
2021/12/01 02:35:56;;;;;;;5.63;2.77;;;128.50;2252.80;;;;;;4824743;29;20061;-64
2021/12/01 02:38:23;;;;;;;4.80;2.60;;;128.50;2252.80;;;;;;4824702;29;20073;-69
2021/12/01 02:40:50;;;;;;;3.87;2.80;;;128.60;2252.80;;;;;;4824631;29;20058;-64
2021/12/01 02:43:17;;;;;;;6.27;3.20;;;128.60;2252.80;;;;;;4824995;29;20426;-64
2021/12/01 02:45:43;;;;;;;4.17;2.73;;;128.60;2252.80;;;;;;4824892;29;20435;-64
2021/12/01 02:48:12;;;;;;;6.23;3.13;;;128.60;2252.80;;;;;;4824652;29;20036;-64
2021/12/01 02:50:41;;;;;;;6.17;2.70;;;128.60;2252.80;;;;;;4824830;29;20380;-64
2021/12/01 02:53:07;;;;;;;6.57;3.20;;;128.50;2252.80;;;;;;4824580;29;20023;-65
2021/12/01 02:55:40;;;;;;;9.67;4.97;;;128.50;2252.80;;;;;;4823874;29;20130;-64
2021/12/01 02:58:07;;;;;;;8.40;5.13;;;128.60;2252.80;;;;;;4824730;29;20046;-64
2021/12/01 03:00:34;;;;;;;9.90;4.90;;;128.60;2252.80;;;;;;4824501;29;20062;-64
2021/12/01 03:03:01;;;;;;;8.13;4.00;;;128.60;2252.80;;;;;;4824388;29;20041;-64
2021/12/01 03:05:27;;;;;;;8.47;3.57;;;128.60;2252.80;;;;;;4824629;29;20030;-64
2021/12/01 03:07:54;;;;;;;5.72;3.40;;;128.60;2252.80;;;;;;4824376;29;20117;-65
2021/12/01 03:10:20;;;;;;;6.07;3.50;;;128.60;2252.80;;;;;;4824418;29;20052;-67
2021/12/01 03:12:46;;;;;;;4.63;2.37;;;128.60;2252.80;;;;;;4824572;29;20122;-64
2021/12/01 03:15:16;;;;;;;4.27;2.43;;;128.60;2252.80;;;;;;4824295;29;20030;-64
2021/12/01 03:17:43;;;;;;;4.30;2.40;;;128.60;2252.80;;;;;;4824414;29;20031;-64
2021/12/01 03:20:10;;;;;;;4.27;2.20;;;128.60;2252.80;;;;;;4824225;29;20026;-64
2021/12/01 03:22:37;;;;;;;6.60;3.20;;;128.60;2252.80;;;;;;4824264;29;20027;-67
2021/12/01 03:25:11;;;;;;;6.93;3.40;;;128.60;2252.80;;;;;;4824167;29;20114;-64
2021/12/01 03:27:38;;;;;;;7.07;3.93;;;128.70;2252.80;;;;;;4824385;29;20087;-64
2021/12/01 03:30:12;;;;;;;6.80;3.97;;;128.70;2252.80;;;;;;4824202;29;20037;-64
2021/12/01 03:32:40;;;;;;;5.37;2.97;;;128.70;2252.80;;;;;;4824121;29;20072;-64
2021/12/01 03:35:09;;;;;;;5.67;3.20;;;128.70;2252.80;;;;;;4824348;29;20057;-66
2021/12/01 03:37:37;;;;;;;5.90;3.43;;;128.70;2252.80;;;;;;4823912;29;20026;-64
2021/12/01 03:40:05;;;;;;;5.23;3.00;;;128.80;2227.20;;;;;;4824065;29;20039;-69
2021/12/01 03:42:31;;;;;;;5.80;3.20;;;128.80;2252.80;;;;;;4823994;29;20091;-64
2021/12/01 03:44:57;;;;;;;5.87;3.10;;;128.80;2252.80;;;;;;4824081;29;20035;-64
2021/12/01 03:47:25;;;;;;;8.23;4.23;;;128.90;2252.80;;;;;;4823962;29;20030;-66
2021/12/01 03:49:51;;;;;;;8.87;5.67;;;128.90;2252.80;;;;;;4823950;29;20038;-64
2021/12/01 03:52:17;;;;;;;25.63;12.80;;;128.90;2252.80;;;;;;4823976;29;20087;-64
2021/12/01 03:54:44;;;;;;;26.43;12.40;;;128.80;2252.80;;;;;;4823664;29;20493;-65
2021/12/01 03:57:12;;;;;;;15.43;7.17;;;128.80;2252.80;;;;;;4823952;29;20073;-64
2021/12/01 03:59:38;;;;;;;8.07;4.27;;;128.80;2252.80;;;;;;4823796;29;20137;-64
2021/12/01 04:02:04;;;;;;;6.77;4.20;;;128.70;2252.80;;;;;;4823870;29;20039;-69
2021/12/01 04:04:30;;;;;;;5.63;3.10;;;128.60;2252.80;;;;;;4824181;29;20030;-64
2021/12/01 04:06:57;;;;;;;7.03;3.77;;;128.50;2252.80;;;;;;4825391;29;20030;-64
2021/12/01 04:09:23;;;;;;;5.77;3.77;;;128.50;2252.80;;;;;;4826920;29;20058;-64
2021/12/01 04:11:49;;;;;;;8.57;4.10;;;128.40;2252.80;;;;;;4827048;29;20057;-64
2021/12/01 04:14:15;;;;;;;7.27;4.10;;;128.40;2252.80;;;;;;4826829;29;20488;-64
2021/12/01 04:16:42;;;;;;;5.40;3.13;;;128.40;2252.80;;;;;;4826829;29;20038;-64
2021/12/01 04:19:08;;;;;;;5.77;3.40;;;128.50;2252.80;;;;;;4826650;29;20038;-64
2021/12/01 04:21:34;;;;;;;6.23;3.40;;;128.50;2252.80;;;;;;4826741;29;20113;-65
2021/12/01 04:24:00;;;;;;;7.37;3.60;;;128.50;2252.80;;;;;;4826958;29;20168;-64
2021/12/01 04:26:27;;;;;;;6.70;3.50;;;128.60;2252.80;;;;;;4826616;29;20404;-64
2021/12/01 04:28:55;;;;;;;5.60;3.27;;;128.60;2252.80;;;;;;4826957;29;20095;-64
2021/12/01 04:31:21;;;;;;;7.40;3.20;;;128.70;2252.80;;;;;;4826886;29;20139;-64
2021/12/01 04:33:48;;;;;;;8.60;3.57;;;128.70;2252.80;;;;;;4826528;29;20442;-64
2021/12/01 04:36:16;;;;;;;6.63;3.60;;;128.70;2252.80;;;;;;4826511;29;20396;-64
2021/12/01 04:38:42;;;;;;;8.70;5.23;;;128.70;2252.80;;;;;;4826381;29;20042;-64
2021/12/01 04:41:09;;;;;;;10.40;5.93;;;128.70;2252.80;;;;;;4826416;29;20083;-64
2021/12/01 04:43:37;;;;;;;10.03;5.73;;;128.70;2252.80;;;;;;4826665;29;20114;-65
2021/12/01 04:46:04;;;;;;;9.77;4.93;;;128.70;2252.80;;;;;;4826668;29;20444;-70
2021/12/01 04:48:31;;;;;;;8.63;3.30;;;128.70;2252.80;;;;;;4826337;29;20034;-65
2021/12/01 04:50:58;;;;;;;9.90;4.53;;;128.70;2252.80;;;;;;4809880;29;20027;-64
2021/12/01 04:53:26;;;;;;;9.67;5.33;;;128.70;2252.80;;;;;;4826233;29;20036;-64
2021/12/01 04:55:55;;;;;;;14.20;7.00;;;128.90;2252.80;;;;;;4826108;29;20069;-64
2021/12/01 04:58:21;;;;;;;17.30;8.70;;;128.90;2252.80;;;;;;4826054;29;20038;-69
2021/12/01 05:00:47;;;;;;;18.63;10.40;;;128.90;2252.80;;;;;;4826678;29;20032;-65
2021/12/01 05:03:13;;;;;;;22.95;12.65;;;128.90;2252.80;;;;;;4826130;29;20027;-64
2021/12/01 05:05:39;;;;;;;20.60;10.75;;;128.90;2252.80;;;;;;4826123;29;20045;-69
2021/12/01 05:08:05;;;;;;;16.70;7.70;;;128.90;2252.80;;;;;;4826273;29;20030;-64
2021/12/01 05:10:31;;;;;;;12.03;6.53;;;128.90;2252.80;;;;;;4826260;29;20026;-64
2021/12/01 05:12:57;;;;;;;12.60;5.90;;;128.90;2252.80;;;;;;4825975;29;20377;-64
2021/12/01 05:15:23;;;;;;;9.03;4.73;;;128.90;2252.80;;;;;;4825992;29;20480;-64
2021/12/01 05:17:49;;;;;;;13.97;5.40;;;128.90;2252.80;;;;;;4825456;29;20496;-65
2021/12/01 05:20:16;;;;;;;9.47;5.00;;;128.90;2252.80;;;;;;4825820;29;20126;-64
2021/12/01 05:22:43;;;;;;;23.93;9.07;;;128.90;2252.80;;;;;;4825748;29;20031;-64
2021/12/01 05:25:10;;;;;;;41.05;18.92;;;128.90;2252.80;;;;;;4826295;29;20026;-64
2021/12/01 05:27:36;;;;;;;46.47;19.70;;;128.90;2252.80;;;;;;4826006;29;20034;-64
2021/12/01 05:30:04;;;;;;;31.97;14.60;;;128.90;2252.80;;;;;;4825946;29;20034;-64
2021/12/01 05:32:31;;;;;;;19.67;9.87;;;128.90;2252.80;;;;;;4825538;29;20026;-65
2021/12/01 05:34:58;;;;;;;12.07;6.17;;;128.90;2252.80;;;;;;4825702;29;20035;-65
2021/12/01 05:37:24;;;;;;;10.60;5.67;;;153.60;2252.80;;;;;;4826047;29;20091;-64
2021/12/01 05:39:50;;;;;;;9.50;5.80;;;153.60;2252.80;;;;;;4825934;29;20464;-64
2021/12/01 05:42:16;;;;;;;12.53;5.77;;;153.60;2252.80;;;;;;4825612;29;20062;-65
2021/12/01 05:44:44;;;;;;;10.10;6.07;;;128.90;2252.80;;;;;;4825710;29;20065;-64
2021/12/01 05:47:11;;;;;;;22.60;9.50;;;128.90;2252.80;;;;;;4825437;29;20054;-65
2021/12/01 05:49:45;;;;;;;22.47;9.67;;;153.60;2252.80;;;;;;4825355;29;20035;-64
2021/12/01 05:52:12;;;;;;;;;;;153.60;2252.80;;;;;;4826099;29;20031;-64
2021/12/01 05:54:37;;;;;;;15.37;8.77;;;153.60;2227.20;;;;;;4825124;29;19920;-65
2021/12/01 05:57:04;;;;;;;25.53;11.13;;;153.60;2252.80;;;;;;4825260;29;20033;-69
2021/12/01 05:59:30;;;;;;;28.93;12.60;;;153.70;2252.80;;;;;;4825190;29;20095;-64
2021/12/01 06:01:56;;;;;;;17.70;9.30;;;153.70;2252.80;;;;;;4825194;29;20030;-64
2021/12/01 06:04:25;;;;;;;15.50;8.10;;;153.80;2201.60;;;;;;4825487;29;20026;-64
2021/12/01 06:06:54;;;;;;;16.67;7.77;;;153.80;2227.20;;;;;;4825232;29;20053;-64
2021/12/01 06:09:20;;;;;;;15.37;7.17;;;153.80;2201.60;;;;;;4825230;29;20361;-64
2021/12/01 06:11:47;;;;;;;19.30;8.90;;;153.80;2252.80;;;;;;4825162;29;20045;-64
2021/12/01 06:14:16;;;;;;;21.40;11.00;;;153.80;2252.80;;;;;;4825131;29;20033;-64
2021/12/01 06:16:46;;;;;;;19.85;11.43;;;153.80;2252.80;;;;;;4825058;29;20030;-64
2021/12/01 06:19:12;;;;;;;25.40;12.07;;;153.70;2252.80;;;;;;4824956;29;20038;-64
2021/12/01 06:21:38;;;;;;;23.03;12.20;;;153.70;2252.80;;;;;;4825306;29;20027;-64
2021/12/01 06:24:04;;;;;;;18.67;10.37;;;153.60;2252.80;;;;;;4825164;29;20034;-64
2021/12/01 06:26:30;;;;;;;18.60;10.13;;;153.60;2252.80;;;;;;4825176;29;20040;-69
2021/12/01 06:28:56;;;;;;;16.17;8.83;;;128.90;2252.80;;;;;;4824150;29;20035;-64
2021/12/01 06:31:22;;;;;;;14.45;8.45;;;128.90;2252.80;;;;;;4824884;29;20026;-64
2021/12/01 06:33:48;;;;;;;11.37;7.63;;;128.80;2252.80;;;;;;4825099;29;20041;-64
2021/12/01 06:36:14;;;;;;;11.30;9.10;;;128.80;2252.80;;;;;;4825104;29;20469;-64
2021/12/01 06:38:41;;;;;;;8.90;6.00;;;128.70;2252.80;;;;;;4824713;29;20043;-64
2021/12/01 06:41:08;;;;;;;13.60;6.10;;;128.70;2252.80;;;;;;4824732;29;20488;-65
2021/12/01 06:43:34;;;;;;;7.90;4.93;;;128.70;2252.80;;;;;;4824329;29;20038;-64
2021/12/01 06:46:00;;;;;;;9.03;4.37;;;128.70;2252.80;;;;;;4824361;29;20438;-70
2021/12/01 06:48:26;;;;;;;9.60;5.57;;;128.70;2252.80;;;;;;4824077;29;20034;-68
2021/12/01 06:50:52;;;;;;;8.43;4.70;;;128.80;2252.80;;;;;;4824071;29;20019;-69
2021/12/01 06:53:18;;;;;;;12.03;7.33;;;128.80;2252.80;;;;;;4807664;29;20087;-69
2021/12/01 06:55:44;;;;;;;18.53;8.57;;;128.80;2252.80;;;;;;4823846;29;20442;-70
2021/12/01 06:58:10;;;;;;;24.17;17.23;;;128.90;2252.80;;;;;;4824097;29;20484;-69
2021/12/01 07:00:36;;;;;;;27.53;21.70;;;128.90;2252.80;;;;;;4824048;29;20030;-70
2021/12/01 07:03:02;;;;;;;38.60;31.40;;;153.60;2252.80;;;;;;4829100;29;20042;-69
2021/12/01 07:05:28;;;;;;;30.00;23.53;;;153.70;2252.80;;;;;;4823979;29;20033;-69
2021/12/01 07:07:54;;;;;;;24.80;19.37;;;153.80;2252.80;;;;;;4829076;29;20030;-69
2021/12/01 07:10:20;;;;;;;18.40;12.80;;;153.90;2252.80;;;;;;4826110;29;20034;-69
2021/12/01 07:12:46;;;;;;;13.90;9.10;;;154.00;2252.80;;;;;;4831206;29;20038;-64
2021/12/01 07:15:13;;;;;;;14.30;7.85;;;154.00;2252.80;;;;;;4823834;29;20122;-68
2021/12/01 07:17:40;;;;;;;17.73;9.07;;;154.10;2252.80;;;;;;4824029;29;20075;-64
2021/12/01 07:20:08;;;;;;;16.95;10.02;;;154.20;2252.80;;;;;;4823975;29;20049;-65
2021/12/01 07:22:34;;;;;;;15.50;7.43;;;154.30;2252.80;;;;;;4824266;29;20034;-64
2021/12/01 07:25:00;;;;;;;19.58;9.18;;;154.20;2252.80;;;;;;4824305;29;20068;-65
2021/12/01 07:27:26;;;;;;;19.58;9.90;;;154.20;2252.80;;;;;;4824131;29;20031;-64
2021/12/01 07:29:52;;;;;;;18.95;10.60;;;154.30;2252.80;;;;;;4824202;29;20033;-64
2021/12/01 07:32:18;;;;;;;19.83;9.38;;;154.30;2252.80;;;;;;4824455;29;20049;-70
2021/12/01 07:34:44;;;;;;;19.48;9.80;;;154.20;2252.80;;;;;;4824379;29;20041;-69
2021/12/01 07:37:12;;;;;;;18.27;10.30;;;154.30;2252.80;;;;;;4824082;29;20477;-69
2021/12/01 07:39:38;;;;;;;22.05;10.90;;;154.20;2252.80;;;;;;4824013;29;20035;-65
2021/12/01 07:42:06;;;;;;;24.08;12.85;;;154.30;2252.80;;;;;;4827142;29;20504;-64
2021/12/01 07:44:32;;;;;;;21.70;10.27;;;154.30;2252.80;;;;;;4827326;29;20034;-65
2021/12/01 07:46:58;;;;;;;27.58;13.38;;;154.40;2252.80;;;;;;4827280;29;20031;-64
2021/12/01 07:49:25;;;;;;;24.02;12.25;;;154.40;2252.80;;;;;;4827853;29;20508;-64
2021/12/01 07:51:52;;;;;;;22.77;11.95;;;154.50;2252.80;;;;;;4827166;29;20041;-65
2021/12/01 07:54:18;;;;;;;31.05;14.68;;;154.50;2252.80;;;;;;4827020;29;20038;-64
2021/12/01 07:56:44;;;;;;;22.05;12.15;;;179.20;2252.80;;;;;;4827435;29;20037;-64
2021/12/01 07:59:13;;;;;;;20.95;8.40;;;179.20;2252.80;;;;;;4827089;29;20038;-64
2021/12/01 08:01:38;;;;;;;10.63;6.38;;;179.30;2252.80;;;;;;4826717;29;20176;-64
2021/12/01 08:04:04;;;;;;;14.95;6.63;;;179.30;2252.80;;;;;;4827009;29;20490;-69
2021/12/01 08:06:32;;;;;;;14.00;7.60;;;179.40;2252.80;;;;;;4827287;29;20061;-70
2021/12/01 08:09:00;;;;;;;19.08;8.90;;;179.40;2252.80;;;;;;4826638;29;20098;-69
2021/12/01 08:11:27;;;;;;;24.13;11.00;;;179.50;2252.80;;;;;;4826747;29;20034;-67
2021/12/01 08:13:53;;;;;;;20.70;11.13;;;179.70;2252.80;;;;;;4826302;29;20037;-64
2021/12/01 08:16:19;;;;;;;31.27;12.55;;;179.70;2252.80;;;;;;4826029;29;20030;-69
2021/12/01 08:18:51;;;;;;;27.95;14.20;;;179.80;2227.20;;;;;;4826456;29;20061;-64
2021/12/01 08:21:17;;;;;;;33.50;16.83;;;180.00;2176.00;;;;;;4824036;29;20034;-66
2021/12/01 08:23:44;;;;;;;26.90;15.75;;;179.90;2252.80;;;;;;4826990;29;20034;-64
2021/12/01 08:26:10;;;;;;;36.22;18.92;;;179.90;2201.60;;;;;;4825742;29;20038;-65
2021/12/01 08:28:35;;;;;;;58.63;31.17;;;179.90;2201.60;;;;;;4823811;29;20031;-69
2021/12/01 08:31:01;;;;;;;58.67;28.75;;;180.00;2176.00;;;;;;4826207;29;20035;-63
2021/12/01 08:33:27;;;;;;;48.92;25.23;;;204.80;2150.40;;;;;;4826369;29;20026;-63
2021/12/01 08:35:53;;;;;;;49.47;24.10;;;204.90;2124.80;;;;;;4826384;29;20031;-63
2021/12/01 08:38:19;;;;;;;38.38;18.63;;;205.00;2124.80;;;;;;4826415;29;20091;-63
2021/12/01 08:40:45;;;;;;;54.63;22.10;;;205.10;2073.60;;;;;;4827036;29;20031;-69
2021/12/01 08:43:11;;;;;;;71.88;29.90;;;205.10;2048.00;;;;;;4826375;29;20449;-62
2021/12/01 08:45:37;;;;;;;46.08;20.92;;;205.20;2048.00;;;;;;4826629;29;20031;-62
2021/12/01 08:48:05;;;;;;;66.70;26.38;;;205.30;2099.20;;;;;;4826634;29;20044;-62
2021/12/01 08:50:32;;;;;;;47.65;19.98;;;205.30;2099.20;;;;;;4826414;29;20027;-62
2021/12/01 08:52:58;;;;;;;62.05;23.33;;;205.40;2048.00;;;;;;4825626;29;20042;-62
2021/12/01 08:55:24;;;;;;;78.47;28.70;;;205.50;2048.00;;;;;;4826008;29;20441;-63
2021/12/01 08:57:50;;;;;;;48.70;18.08;;;205.60;2073.60;;;;;;4826080;29;20077;-62
2021/12/01 09:00:18;;;;;;;28.98;12.23;;;205.70;1971.20;;;;;;4826209;29;20039;-65
2021/12/01 09:02:44;;;;;;;18.77;8.65;;;205.70;1971.20;;;;;;4826072;29;20026;-62
2021/12/01 09:05:10;;;;;;;19.48;10.98;;;205.70;1945.60;;;;;;4826318;29;20030;-62
2021/12/01 09:07:36;;;;;;;26.05;12.15;;;205.60;1920.00;;;;;;4826137;29;20432;-62
2021/12/01 09:10:04;;;;;;;31.83;13.13;;;205.60;1920.00;;;;;;4825932;29;20121;-62
2021/12/01 09:12:30;;;;;;;25.27;11.98;;;205.60;1945.60;;;;;;4826254;29;20519;-62
2021/12/01 09:14:57;;;;;;;23.10;11.88;;;205.60;1945.60;;;;;;4825200;29;20069;-69
2021/12/01 09:17:25;;;;;;;23.58;12.00;;;205.70;1945.60;;;;;;4825955;29;20380;-63
2021/12/01 09:19:52;;;;;;;33.25;15.50;;;205.70;1971.20;;;;;;4824797;29;20043;-62
2021/12/01 09:22:19;;;;;;;32.47;14.48;;;230.40;1996.80;;;;;;4825468;29;20091;-63
2021/12/01 09:24:46;;;;;;;18.92;9.88;;;230.40;1996.80;;;;;;4825976;29;20038;-69
2021/12/01 09:27:13;;;;;;;20.05;11.45;;;205.70;2022.40;;;;;;4825706;29;20034;-63
2021/12/01 09:29:39;;;;;;;84.97;38.63;;;205.70;2022.40;;;;;;4825974;29;20442;-69
2021/12/01 09:32:05;;;;;;;22.45;10.52;;;205.70;2022.40;;;;;;4826001;29;20035;-70
2021/12/01 09:34:31;;;;;;;21.15;11.07;;;230.40;1996.80;;;;;;4825828;29;20118;-69
2021/12/01 09:36:58;;;;;;;27.60;14.68;;;230.40;2048.00;;;;;;4825590;29;20041;-63
2021/12/01 09:39:25;;;;;;;23.00;11.07;;;230.50;2048.00;;;;;;4825505;29;20066;-62
2021/12/01 09:41:51;;;;;;;26.13;11.90;;;230.60;2022.40;;;;;;4825572;29;20139;-63
2021/12/01 09:44:18;;;;;;;14.98;7.93;;;230.70;1996.80;;;;;;4825569;29;20117;-63
2021/12/01 09:46:45;;;;;;;22.42;10.07;;;230.90;1971.20;;;;;;4825740;29;20030;-70
2021/12/01 09:49:10;;;;;;;17.58;6.70;;;231.00;1971.20;;;;;;4825425;29;20046;-63
2021/12/01 09:51:37;;;;;;;15.40;8.40;;;231.10;1945.60;;;;;;4825322;29;20038;-63
2021/12/01 09:54:04;;;;;;;13.27;7.45;;;231.10;1920.00;;;;;;4825420;29;20118;-62
2021/12/01 09:56:31;;;;;;;13.43;6.65;;;231.20;1894.40;;;;;;4825754;29;20523;-64
2021/12/01 09:58:58;;;;;;;12.90;7.18;;;231.30;1868.80;;;;;;4825221;29;20134;-63
2021/12/01 10:01:26;;;;;;;21.77;8.57;;;256.40;1843.20;;;;;;4825270;29;20384;-70
2021/12/01 10:03:52;;;;;;;11.27;6.22;;;256.60;1817.60;;;;;;4824183;29;20038;-64
2021/12/01 10:06:20;;;;;;;16.80;6.82;;;256.90;1766.40;;;;;;4824829;29;20087;-69
2021/12/01 10:08:51;;;;;;;22.45;13.05;;;281.80;1766.40;;;;;;4806801;29;20038;-65
2021/12/01 10:11:24;;;;;;;25.10;12.43;;;282.00;1740.80;;;;;;4814633;29;20503;-69
2021/12/01 10:13:55;;;;;;;24.30;12.57;;;281.80;1792.00;;;;;;4824693;29;20022;-69
2021/12/01 10:16:22;;;;;;;19.05;10.68;;;256.90;1792.00;;;;;;4822339;29;20038;-69
2021/12/01 10:18:51;;;;;;;24.20;12.18;;;256.90;1817.60;;;;;;4824437;29;20071;-65
2021/12/01 10:21:28;;;;;;;25.40;10.73;;;256.80;1817.60;;;;;;4825126;29;20083;-63
2021/12/01 10:24:16;;;;;;;27.75;14.55;;;256.60;1817.60;;;;;;4825305;29;20030;-63
2021/12/01 10:26:50;;;;;;;24.20;13.10;;;256.40;1843.20;;;;;;4825235;29;20023;-69
2021/12/01 10:29:20;;;;;;;23.63;12.73;;;256.30;1868.80;;;;;;4824834;29;20039;-69
2021/12/01 10:31:52;;;;;;;21.58;11.27;;;256.60;1868.80;;;;;;4824847;29;20109;-64
2021/12/01 10:34:23;;;;;;;19.75;10.65;;;256.60;1843.20;;;;;;4825107;29;20058;-63
2021/12/01 10:37:23;;;;;;;21.90;11.05;;;256.70;1843.20;;;;;;4824839;29;20074;-64
2021/12/01 10:40:17;;;;;;;24.13;13.85;;;281.60;1817.60;;;;;;4824709;29;20074;-69
2021/12/01 10:42:57;;;;;;;20.10;10.50;;;282.50;1740.80;;;;;;4824713;29;20460;-68
2021/12/01 10:45:47;;;;;;;21.80;13.18;;;282.20;1766.40;;;;;;4824698;29;20438;-65
2021/12/01 10:48:25;;;;;;;31.52;13.35;;;282.30;1740.80;;;;;;4824438;29;20026;-63
2021/12/01 10:50:52;;;;;;;24.90;10.45;;;307.20;1740.80;;;;;;4824523;29;20498;-69
2021/12/01 10:53:22;;;;;;;22.15;10.85;;;307.50;1715.20;;;;;;4824579;29;20418;-64
2021/12/01 10:55:56;;;;;;;20.92;9.35;;;308.00;1638.40;;;;;;4807993;29;20054;-64
2021/12/01 10:58:30;;;;;;;19.65;9.05;;;307.70;1664.00;;;;;;4824532;29;20074;-64
2021/12/01 11:00:55;;;;;;;21.77;9.07;;;307.80;1689.60;;;;;;4824686;29;20053;-69
2021/12/01 11:03:25;;;;;;;20.50;9.65;;;307.70;1715.20;;;;;;4824723;29;20062;-69
2021/12/01 11:05:55;;;;;;;18.45;10.90;;;308.10;1664.00;;;;;;4824335;29;20027;-65
2021/12/01 11:08:25;;;;;;;17.90;8.13;;;307.70;1689.60;;;;;;4824652;29;20030;-64
2021/12/01 11:10:57;;;;;;;19.90;9.68;;;307.40;1766.40;;;;;;4824614;29;20489;-69
2021/12/01 11:13:24;;;;;;;15.55;9.40;;;307.30;1792.00;;;;;;4824379;29;20030;-69
2021/12/01 11:15:58;;;;;;;16.50;8.05;;;307.20;1792.00;;;;;;4826191;29;20042;-64
2021/12/01 11:18:26;;;;;;;16.58;9.88;;;307.20;1792.00;;;;;;4827689;29;20074;-69
2021/12/01 11:20:55;;;;;;;13.15;8.07;;;307.30;1817.60;;;;;;4827874;29;20027;-70
2021/12/01 11:23:33;;;;;;;12.35;6.80;;;307.40;1792.00;;;;;;4827776;29;20488;-70
2021/12/01 11:26:15;;;;;;;15.25;6.13;;;307.50;1766.40;;;;;;4828130;29;20079;-69
2021/12/01 11:28:52;;;;;;;22.58;12.38;;;307.70;1766.40;;;;;;4827668;29;20030;-69
2021/12/01 11:31:28;;;;;;;14.43;6.55;;;307.70;1766.40;;;;;;4827473;29;20033;-64
2021/12/01 11:33:56;;;;;;;12.73;6.10;;;307.50;1740.80;;;;;;4808598;29;20022;-64
2021/12/01 11:36:37;;;;;;;10.77;5.30;;;307.30;1792.00;;;;;;4827156;29;20486;-64
2021/12/01 11:39:10;;;;;;;13.35;7.57;;;307.20;1792.00;;;;;;4825715;29;20095;-64
2021/12/01 11:41:42;;;;;;;23.50;10.85;;;307.20;1817.60;;;;;;4809330;29;20034;-65
2021/12/01 11:44:09;;;;;;;18.52;9.20;;;307.40;1792.00;;;;;;4807879;29;20606;-65
2021/12/01 11:46:35;;;;;;;20.17;10.35;;;307.50;1766.40;;;;;;4807773;29;20030;-65
2021/12/01 11:49:09;;;;;;;17.58;9.23;;;307.70;1740.80;;;;;;4808651;29;20043;-69
2021/12/01 11:51:50;;;;;;;16.75;9.65;;;308.00;1740.80;;;;;;4807960;29;20023;-68
2021/12/01 11:54:22;;;;;;;16.90;9.70;;;308.10;1740.80;;;;;;4809333;29;20035;-67
2021/12/01 11:56:59;;;;;;;32.33;14.95;;;332.80;1740.80;;;;;;4809291;29;20102;-65
2021/12/01 11:59:27;;;;;;;34.75;16.02;;;333.00;1715.20;;;;;;4809305;29;20121;-67
2021/12/01 12:02:22;;;;;;;36.17;15.60;;;333.10;1715.20;;;;;;4809051;29;20039;-70
2021/12/01 12:04:58;;;;;;;14.40;8.40;;;333.20;1715.20;;;;;;4809302;29;20031;-67
2021/12/01 12:07:26;;;;;;;57.80;28.92;;;333.10;1740.80;;;;;;4809004;29;20568;-63
2021/12/01 12:10:16;;;;;;;23.85;13.52;;;333.20;1766.40;;;;;;4808945;29;20034;-68
2021/12/01 12:13:03;;;;;;;29.27;15.65;;;333.40;1766.40;;;;;;4808937;29;20507;-64
2021/12/01 12:15:51;;;;;;;26.83;13.43;;;333.60;1766.40;;;;;;4825297;29;20038;-64
2021/12/01 12:18:44;;;;;;;25.05;12.27;;;358.60;1715.20;;;;;;4825199;29;20069;-65
2021/12/01 12:21:17;;;;;;;19.27;9.35;;;384.50;1536.00;;;;;;4825272;29;20385;-64